createdAt,value
2022-11-21T00:00:35.274Z,25.58
2022-11-21T00:05:46.770Z,26.88
2022-11-21T00:10:48.905Z,26.10
2022-11-21T00:15:50.538Z,25.48
2022-11-21T00:20:52.107Z,26.33
2022-11-21T00:25:53.778Z,25.35
2022-11-21T00:30:55.443Z,27.00
2022-11-21T00:35:57.248Z,25.60
2022-11-21T00:40:59.025Z,26.60
2022-11-21T00:46:02.834Z,27.02
2022-11-21T00:51:04.909Z,26.40
2022-11-21T00:56:06.592Z,28.08
2022-11-21T01:01:14.022Z,26.55
2022-11-21T01:06:18.774Z,26.27
2022-11-21T01:11:21.627Z,27.10
2022-11-21T01:16:26.830Z,27.35
2022-11-21T01:21:32.581Z,27.45
2022-11-21T01:26:38.407Z,28.33
2022-11-21T01:31:40.218Z,26.00
2022-11-21T01:36:42.119Z,26.30
2022-11-21T01:41:46.053Z,26.40
2022-11-21T01:46:49.460Z,28.67
2022-11-21T01:51:57.166Z,25.63
2022-11-21T01:57:23.479Z,27.00
2022-11-21T02:02:30.933Z,25.77
2022-11-21T02:07:39.684Z,26.85
2022-11-21T02:12:53.941Z,25.98
2022-11-21T02:17:56.546Z,25.98
2022-11-21T02:23:30.138Z,27.00
2022-11-21T02:28:33.550Z,26.52
2022-11-21T02:33:35.292Z,26.42
2022-11-21T02:38:38.844Z,25.52
2022-11-21T02:43:49.866Z,25.88
2022-11-21T02:48:52.120Z,26.17
2022-11-21T02:53:53.698Z,27.48
2022-11-21T02:58:55.338Z,27.27
2022-11-21T03:03:57.039Z,26.60
2022-11-21T03:08:58.726Z,27.75
2022-11-21T03:14:00.378Z,28.42
2022-11-21T03:19:02.183Z,26.95
2022-11-21T03:24:04.171Z,27.38
2022-11-21T03:29:05.762Z,27.33
2022-11-21T03:34:07.542Z,27.17
2022-11-21T03:39:09.350Z,27.65
2022-11-21T03:44:12.149Z,26.33
2022-11-21T03:49:14.275Z,26.17
2022-11-21T03:54:29.325Z,26.88
2022-11-21T03:59:31.159Z,28.00
2022-11-21T04:04:32.896Z,27.73
2022-11-21T04:09:38.682Z,26.58
2022-11-21T04:14:42.402Z,27.63
2022-11-21T04:19:43.986Z,27.65
2022-11-21T04:24:45.701Z,23.98
2022-11-21T04:29:47.814Z,23.23
2022-11-21T04:34:49.486Z,23.15
2022-11-21T04:39:51.169Z,24.02
2022-11-21T04:44:52.803Z,26.27
2022-11-21T04:49:54.382Z,24.70
2022-11-21T04:54:58.066Z,26.17
2022-11-21T05:00:01.971Z,25.83
2022-11-21T05:05:03.678Z,26.80
2022-11-21T05:10:06.701Z,25.98
2022-11-21T05:15:08.915Z,23.63
2022-11-21T05:20:11.207Z,25.98
2022-11-21T05:25:13.897Z,25.13
2022-11-21T05:30:16.022Z,25.92
2022-11-21T05:35:17.750Z,26.13
2022-11-21T05:40:19.279Z,22.95
2022-11-21T05:45:20.899Z,21.17
2022-11-21T05:50:22.803Z,20.33
2022-11-21T05:55:24.414Z,20.15
2022-11-21T06:00:59.741Z,20.95
2022-11-21T06:06:20.902Z,19.05
2022-11-21T06:11:34.587Z,19.70
2022-11-21T06:16:36.263Z,19.88
2022-11-21T06:21:38.090Z,20.17
2022-11-21T06:26:39.814Z,18.95
2022-11-21T06:31:41.457Z,17.92
2022-11-21T06:36:44.740Z,17.23
2022-11-21T06:41:51.116Z,17.40
2022-11-21T06:46:52.917Z,18.27
2022-11-21T06:51:54.569Z,18.13
2022-11-21T06:56:56.220Z,17.42
2022-11-21T07:01:57.881Z,18.80
2022-11-21T07:07:00.048Z,19.05
2022-11-21T07:12:21.642Z,18.23
2022-11-21T07:17:23.306Z,17.25
2022-11-21T07:22:25.036Z,19.27
2022-11-21T07:27:26.716Z,20.00
2022-11-21T07:32:28.740Z,21.38
2022-11-21T07:37:30.420Z,20.83
2022-11-21T07:42:33.236Z,22.10
2022-11-21T07:47:35.051Z,19.80
2022-11-21T07:52:39.213Z,19.95
2022-11-21T07:57:40.830Z,19.30
2022-11-21T08:02:42.442Z,20.08
2022-11-21T08:07:44.164Z,19.08
2022-11-21T08:12:47.136Z,18.75
2022-11-21T08:17:49.062Z,19.50
2022-11-21T08:22:50.743Z,19.13
2022-11-21T08:27:56.541Z,18.60
2022-11-21T08:33:01.119Z,17.35
2022-11-21T08:38:02.819Z,17.20
2022-11-21T08:43:09.660Z,16.30
2022-11-21T08:48:11.904Z,15.80
2022-11-21T08:53:23.742Z,14.88
2022-11-21T08:58:25.414Z,14.95
2022-11-21T09:03:31.143Z,15.20
2022-11-21T09:08:33.606Z,16.17
2022-11-21T09:13:36.529Z,14.93
2022-11-21T09:18:38.184Z,14.27
2022-11-21T09:23:39.983Z,14.75
2022-11-21T09:28:41.661Z,16.23
2022-11-21T09:33:43.336Z,13.40
2022-11-21T09:44:43.989Z,11.88
2022-11-21T09:49:50.107Z,11.80
2022-11-21T09:54:58.272Z,13.15
2022-11-21T10:00:01.513Z,12.25
2022-11-21T10:05:15.272Z,12.50
2022-11-21T10:11:11.544Z,11.82
2022-11-21T10:16:29.219Z,11.68
2022-11-21T10:21:50.456Z,11.90
2022-11-21T10:26:54.564Z,12.57
2022-11-21T10:32:01.793Z,12.10
2022-11-21T10:37:13.500Z,12.50
2022-11-21T10:42:30.672Z,13.55
2022-11-21T10:47:37.586Z,14.25
2022-11-21T10:52:45.089Z,11.88
2022-11-21T10:57:51.771Z,13.10
2022-11-21T11:03:04.846Z,13.48
2022-11-21T11:08:12.438Z,14.15
2022-11-21T11:13:46.825Z,14.70
2022-11-21T11:19:02.847Z,13.60
2022-11-21T11:24:10.451Z,13.95
2022-11-21T11:29:18.283Z,14.07
2022-11-21T11:34:20.357Z,14.05
2022-11-21T11:39:35.346Z,13.02
2022-11-21T11:45:24.855Z,11.98
2022-11-21T11:50:32.387Z,10.23
2022-11-21T11:55:55.841Z,10.32
2022-11-21T12:01:06.639Z,9.57
2022-11-21T12:06:38.245Z,9.02
2022-11-21T12:12:09.754Z,7.78
2022-11-21T12:17:14.928Z,6.28
2022-11-21T12:22:16.683Z,6.30
2022-11-21T12:27:32.851Z,4.38
2022-11-21T12:32:50.348Z,6.20
2022-11-21T12:38:15.587Z,4.82
2022-11-21T12:43:47.139Z,4.72
2022-11-21T12:49:07.343Z,3.67
2022-11-21T12:54:38.913Z,4.78
2022-11-21T13:00:02.506Z,4.78
2022-11-21T13:05:10.609Z,5.07
2022-11-21T13:10:15.783Z,4.90
2022-11-21T13:15:39.890Z,4.95
2022-11-21T13:20:48.729Z,4.47
2022-11-21T13:25:50.564Z,4.43
2022-11-21T13:31:00.931Z,4.35
2022-11-21T13:36:04.683Z,5.20
2022-11-21T13:41:26.366Z,4.60
2022-11-21T13:46:59.712Z,4.63
2022-11-21T13:52:12.401Z,4.78
2022-11-21T13:57:51.643Z,4.82
2022-11-21T14:03:20.853Z,5.47
2022-11-21T14:08:25.349Z,4.32
2022-11-21T14:13:34.670Z,4.75
2022-11-21T14:18:38.933Z,4.50
2022-11-21T14:23:44.365Z,4.10
2022-11-21T14:28:46.130Z,4.57
2022-11-21T14:34:00.862Z,3.95
2022-11-21T14:44:38.287Z,3.92
2022-11-21T14:49:40.021Z,3.30
2022-11-21T14:55:13.493Z,3.50
2022-11-21T15:00:36.071Z,3.55
2022-11-21T15:11:00.467Z,3.30
2022-11-21T15:16:13.092Z,3.92
2022-11-21T15:21:16.412Z,4.40
2022-11-21T15:26:35.698Z,3.80
2022-11-21T15:31:37.657Z,3.42
2022-11-21T15:36:47.261Z,3.80
2022-11-21T15:41:49.005Z,3.83
2022-11-21T15:46:52.213Z,4.40
2022-11-21T15:52:10.377Z,4.32
2022-11-21T15:57:12.884Z,4.10
2022-11-21T16:02:15.665Z,4.38
2022-11-21T16:07:17.438Z,4.00
2022-11-21T16:12:19.171Z,4.60
2022-11-21T16:17:21.323Z,5.97
2022-11-21T16:22:23.036Z,3.60
2022-11-21T16:27:32.100Z,3.97
2022-11-21T16:32:36.223Z,5.10
2022-11-21T16:37:37.996Z,3.83
2022-11-21T16:42:39.693Z,3.90
2022-11-21T16:47:45.837Z,4.28
2022-11-21T16:52:50.807Z,4.13
2022-11-21T16:57:54.948Z,5.10
2022-11-21T17:02:58.048Z,6.35
2022-11-21T17:07:59.687Z,4.47
2022-11-21T17:13:02.414Z,4.85
2022-11-21T17:18:04.027Z,7.28
2022-11-21T17:23:05.913Z,9.55
2022-11-21T17:28:10.255Z,7.28
2022-11-21T17:33:13.617Z,5.10
2022-11-21T17:38:21.338Z,5.25
2022-11-21T17:43:23.732Z,10.77
2022-11-21T17:48:32.027Z,5.50
2022-11-21T17:53:36.465Z,10.88
2022-11-21T17:58:38.625Z,4.78
2022-11-21T18:03:40.769Z,5.70
2022-11-21T18:08:44.468Z,4.28
2022-11-21T18:13:46.500Z,4.80
2022-11-21T18:18:49.768Z,6.65
2022-11-21T18:23:55.942Z,6.22
2022-11-21T18:29:28.771Z,4.90
2022-11-21T18:34:22.636Z,5.78
2022-11-21T18:39:25.148Z,4.90
2022-11-21T18:44:27.226Z,3.97
2022-11-21T18:49:29.287Z,5.00
2022-11-21T18:54:31.262Z,4.25
2022-11-21T18:59:33.395Z,4.63
2022-11-21T19:04:35.205Z,9.40
2022-11-21T19:09:37.206Z,7.50
2022-11-21T19:14:39.470Z,10.75
2022-11-21T19:19:41.305Z,4.45
2022-11-21T19:24:54.903Z,4.18
2022-11-21T19:29:56.678Z,4.15
2022-11-21T19:34:58.378Z,4.97
2022-11-21T19:40:00.143Z,3.97
2022-11-21T19:45:01.811Z,6.13
2022-11-21T19:50:03.618Z,4.00
2022-11-21T19:55:05.695Z,4.10
2022-11-21T20:00:07.975Z,4.30
2022-11-21T20:05:11.713Z,4.20
2022-11-21T20:10:13.529Z,3.40
2022-11-21T20:15:15.237Z,5.68
2022-11-21T20:20:19.334Z,5.85
2022-11-21T20:25:21.087Z,3.22
2022-11-21T20:30:25.084Z,3.60
2022-11-21T20:35:26.829Z,3.63
2022-11-21T20:40:28.578Z,3.53
2022-11-21T20:56:15.677Z,3.65
2022-11-21T21:01:19.949Z,4.43
2022-11-21T21:06:24.265Z,5.10
2022-11-21T21:11:51.020Z,4.45
2022-11-21T21:16:55.152Z,4.82
2022-11-21T21:21:56.852Z,4.13
2022-11-21T21:27:00.469Z,4.20
2022-11-21T21:32:02.101Z,4.40
2022-11-21T21:37:03.722Z,4.72
2022-11-21T21:42:05.454Z,4.82
2022-11-21T21:47:11.161Z,5.07
2022-11-21T21:52:12.851Z,4.90
2022-11-21T21:57:14.665Z,4.47
2022-11-21T22:02:16.471Z,4.50
2022-11-21T22:07:19.915Z,3.80
2022-11-21T22:12:21.753Z,4.07
2022-11-21T22:17:23.441Z,3.65
2022-11-21T22:22:25.109Z,3.53
2022-11-21T22:27:26.806Z,3.70
2022-11-21T22:32:28.426Z,3.25
2022-11-21T22:37:30.211Z,4.68
2022-11-21T22:42:31.980Z,3.70
2022-11-21T22:47:33.837Z,4.20
2022-11-21T22:52:52.848Z,3.88
2022-11-21T22:57:58.603Z,4.57
2022-11-21T23:03:00.284Z,3.85
2022-11-21T23:08:01.929Z,3.45
2022-11-21T23:13:03.625Z,3.90
2022-11-21T23:18:05.354Z,4.10
2022-11-21T23:23:08.002Z,5.15
2022-11-21T23:28:09.737Z,3.88
2022-11-21T23:33:11.771Z,4.88
2022-11-21T23:38:15.339Z,4.80
2022-11-21T23:43:18.190Z,3.95
2022-11-21T23:48:21.149Z,4.32
2022-11-21T23:53:22.978Z,3.90
2022-11-21T23:58:24.697Z,4.03
